sensor_id;sensor_type;location;lat;lon;timestamp;temperature;humidity
38325;DHT22;24126;52.672;13.622;2023-05-16T00:02:18;17.40;72.60
38325;DHT22;24126;52.672;13.622;2023-05-16T00:04:45;17.40;72.80
38325;DHT22;24126;52.672;13.622;2023-05-16T00:07:12;17.30;72.90
38325;DHT22;24126;52.672;13.622;2023-05-16T00:09:40;17.30;73.00
38325;DHT22;24126;52.672;13.622;2023-05-16T00:12:07;17.30;73.00
38325;DHT22;24126;52.672;13.622;2023-05-16T00:14:34;17.30;73.10
38325;DHT22;24126;52.672;13.622;2023-05-16T00:17:02;17.30;73.30
38325;DHT22;24126;52.672;13.622;2023-05-16T00:19:29;17.30;73.40
38325;DHT22;24126;52.672;13.622;2023-05-16T00:21:56;17.40;73.50
38325;DHT22;24126;52.672;13.622;2023-05-16T00:24:23;17.30;73.50
38325;DHT22;24126;52.672;13.622;2023-05-16T00:26:50;17.40;73.70
38325;DHT22;24126;52.672;13.622;2023-05-16T00:29:17;17.40;73.70
38325;DHT22;24126;52.672;13.622;2023-05-16T00:31:44;17.40;73.70
38325;DHT22;24126;52.672;13.622;2023-05-16T00:34:11;17.40;73.60
38325;DHT22;24126;52.672;13.622;2023-05-16T00:36:38;17.40;73.70
38325;DHT22;24126;52.672;13.622;2023-05-16T00:39:07;17.50;73.70
38325;DHT22;24126;52.672;13.622;2023-05-16T00:41:35;17.50;73.70
38325;DHT22;24126;52.672;13.622;2023-05-16T00:44:02;17.50;73.60
38325;DHT22;24126;52.672;13.622;2023-05-16T00:46:30;17.50;73.60
38325;DHT22;24126;52.672;13.622;2023-05-16T00:48:57;17.50;73.60
38325;DHT22;24126;52.672;13.622;2023-05-16T00:51:24;17.50;73.60
38325;DHT22;24126;52.672;13.622;2023-05-16T00:53:51;17.50;73.60
38325;DHT22;24126;52.672;13.622;2023-05-16T00:56:19;17.50;73.40
38325;DHT22;24126;52.672;13.622;2023-05-16T00:58:47;17.50;73.30
38325;DHT22;24126;52.672;13.622;2023-05-16T01:01:14;17.50;73.20
38325;DHT22;24126;52.672;13.622;2023-05-16T01:03:43;17.50;73.20
38325;DHT22;24126;52.672;13.622;2023-05-16T01:06:11;17.50;73.20
38325;DHT22;24126;52.672;13.622;2023-05-16T01:08:38;17.50;73.20
38325;DHT22;24126;52.672;13.622;2023-05-16T01:11:18;17.40;73.10
38325;DHT22;24126;52.672;13.622;2023-05-16T01:16:49;17.40;73.30
38325;DHT22;24126;52.672;13.622;2023-05-16T01:19:28;17.40;73.30
38325;DHT22;24126;52.672;13.622;2023-05-16T01:22:01;17.40;73.30
38325;DHT22;24126;52.672;13.622;2023-05-16T01:24:43;17.40;73.40
38325;DHT22;24126;52.672;13.622;2023-05-16T01:27:10;17.40;73.50
38325;DHT22;24126;52.672;13.622;2023-05-16T01:29:37;17.40;73.50
38325;DHT22;24126;52.672;13.622;2023-05-16T01:32:04;17.40;73.50
38325;DHT22;24126;52.672;13.622;2023-05-16T01:34:31;17.40;73.50
38325;DHT22;24126;52.672;13.622;2023-05-16T01:37:11;17.40;73.50
38325;DHT22;24126;52.672;13.622;2023-05-16T01:39:41;17.40;73.70
38325;DHT22;24126;52.672;13.622;2023-05-16T01:44:42;17.40;73.80
38325;DHT22;24126;52.672;13.622;2023-05-16T01:47:11;17.40;73.90
38325;DHT22;24126;52.672;13.622;2023-05-16T01:50:00;17.40;73.80
38325;DHT22;24126;52.672;13.622;2023-05-16T01:58:03;17.40;74.20
38325;DHT22;24126;52.672;13.622;2023-05-16T02:00:31;17.40;74.30
38325;DHT22;24126;52.672;13.622;2023-05-16T02:02:59;17.40;74.40
38325;DHT22;24126;52.672;13.622;2023-05-16T02:05:26;17.40;74.40
38325;DHT22;24126;52.672;13.622;2023-05-16T02:07:53;17.40;74.50
38325;DHT22;24126;52.672;13.622;2023-05-16T02:10:21;17.40;74.50
38325;DHT22;24126;52.672;13.622;2023-05-16T02:12:49;17.40;74.60
38325;DHT22;24126;52.672;13.622;2023-05-16T02:15:16;17.40;74.60
38325;DHT22;24126;52.672;13.622;2023-05-16T02:17:43;17.40;74.70
38325;DHT22;24126;52.672;13.622;2023-05-16T02:20:11;17.40;74.90
38325;DHT22;24126;52.672;13.622;2023-05-16T02:22:38;17.40;75.00
38325;DHT22;24126;52.672;13.622;2023-05-16T02:25:05;17.40;75.00
38325;DHT22;24126;52.672;13.622;2023-05-16T02:27:32;17.40;75.10
38325;DHT22;24126;52.672;13.622;2023-05-16T02:29:59;17.50;75.20
38325;DHT22;24126;52.672;13.622;2023-05-16T02:32:26;17.50;75.30
38325;DHT22;24126;52.672;13.622;2023-05-16T02:34:53;17.50;75.30
38325;DHT22;24126;52.672;13.622;2023-05-16T02:37:24;17.40;75.30
38325;DHT22;24126;52.672;13.622;2023-05-16T02:39:51;17.50;75.40
38325;DHT22;24126;52.672;13.622;2023-05-16T02:42:19;17.50;75.40
38325;DHT22;24126;52.672;13.622;2023-05-16T02:44:46;17.50;75.40
38325;DHT22;24126;52.672;13.622;2023-05-16T02:47:13;17.40;75.30
38325;DHT22;24126;52.672;13.622;2023-05-16T02:49:40;17.40;75.30
38325;DHT22;24126;52.672;13.622;2023-05-16T02:52:07;17.50;75.40
38325;DHT22;24126;52.672;13.622;2023-05-16T02:54:34;17.40;75.40
38325;DHT22;24126;52.672;13.622;2023-05-16T02:57:01;17.40;75.30
38325;DHT22;24126;52.672;13.622;2023-05-16T02:59:28;17.40;75.30
38325;DHT22;24126;52.672;13.622;2023-05-16T03:01:56;17.40;75.20
38325;DHT22;24126;52.672;13.622;2023-05-16T03:04:23;17.40;75.00
38325;DHT22;24126;52.672;13.622;2023-05-16T03:06:50;17.30;74.80
38325;DHT22;24126;52.672;13.622;2023-05-16T03:09:17;17.30;74.70
38325;DHT22;24126;52.672;13.622;2023-05-16T03:11:46;17.20;74.60
38325;DHT22;24126;52.672;13.622;2023-05-16T03:14:13;17.20;74.70
38325;DHT22;24126;52.672;13.622;2023-05-16T03:16:40;17.20;74.60
38325;DHT22;24126;52.672;13.622;2023-05-16T03:19:08;17.10;74.50
38325;DHT22;24126;52.672;13.622;2023-05-16T03:21:36;17.10;75.20
38325;DHT22;24126;52.672;13.622;2023-05-16T03:24:03;17.10;74.60
38325;DHT22;24126;52.672;13.622;2023-05-16T03:26:30;17.10;74.60
38325;DHT22;24126;52.672;13.622;2023-05-16T03:28:57;17.00;74.50
38325;DHT22;24126;52.672;13.622;2023-05-16T03:31:24;17.00;74.40
38325;DHT22;24126;52.672;13.622;2023-05-16T03:33:51;17.00;74.50
38325;DHT22;24126;52.672;13.622;2023-05-16T03:36:20;17.00;74.40
38325;DHT22;24126;52.672;13.622;2023-05-16T03:38:47;17.00;74.50
38325;DHT22;24126;52.672;13.622;2023-05-16T03:41:14;17.00;74.60
38325;DHT22;24126;52.672;13.622;2023-05-16T03:43:46;16.90;74.50
38325;DHT22;24126;52.672;13.622;2023-05-16T03:46:13;16.90;74.40
38325;DHT22;24126;52.672;13.622;2023-05-16T03:48:40;16.90;74.30
38325;DHT22;24126;52.672;13.622;2023-05-16T03:51:07;16.90;74.30
38325;DHT22;24126;52.672;13.622;2023-05-16T03:53:34;16.90;74.20
38325;DHT22;24126;52.672;13.622;2023-05-16T03:56:01;16.90;74.30
38325;DHT22;24126;52.672;13.622;2023-05-16T03:58:29;16.80;74.30
38325;DHT22;24126;52.672;13.622;2023-05-16T04:00:56;16.90;74.30
38325;DHT22;24126;52.672;13.622;2023-05-16T04:03:23;16.80;74.40
38325;DHT22;24126;52.672;13.622;2023-05-16T04:05:53;16.80;74.20
38325;DHT22;24126;52.672;13.622;2023-05-16T04:08:21;16.80;74.30
38325;DHT22;24126;52.672;13.622;2023-05-16T04:10:48;16.90;74.40
38325;DHT22;24126;52.672;13.622;2023-05-16T04:13:15;16.80;74.20
38325;DHT22;24126;52.672;13.622;2023-05-16T04:15:42;16.80;74.20
38325;DHT22;24126;52.672;13.622;2023-05-16T04:18:09;16.80;74.20
38325;DHT22;24126;52.672;13.622;2023-05-16T04:20:36;16.80;74.10
38325;DHT22;24126;52.672;13.622;2023-05-16T04:23:03;16.80;74.00
38325;DHT22;24126;52.672;13.622;2023-05-16T04:25:30;16.80;74.00
38325;DHT22;24126;52.672;13.622;2023-05-16T04:27:57;16.80;74.00
38325;DHT22;24126;52.672;13.622;2023-05-16T04:30:24;16.80;74.10
38325;DHT22;24126;52.672;13.622;2023-05-16T04:32:51;16.80;74.00
38325;DHT22;24126;52.672;13.622;2023-05-16T04:35:18;16.70;74.00
38325;DHT22;24126;52.672;13.622;2023-05-16T04:37:46;16.70;74.10
38325;DHT22;24126;52.672;13.622;2023-05-16T04:40:13;16.70;74.00
38325;DHT22;24126;52.672;13.622;2023-05-16T04:42:42;16.70;74.00
38325;DHT22;24126;52.672;13.622;2023-05-16T04:45:09;16.70;74.00
38325;DHT22;24126;52.672;13.622;2023-05-16T04:47:36;16.70;74.60
38325;DHT22;24126;52.672;13.622;2023-05-16T04:50:04;16.70;74.00
38325;DHT22;24126;52.672;13.622;2023-05-16T04:52:31;16.70;74.00
38325;DHT22;24126;52.672;13.622;2023-05-16T04:54:59;16.70;74.00
38325;DHT22;24126;52.672;13.622;2023-05-16T04:57:26;16.70;73.90
38325;DHT22;24126;52.672;13.622;2023-05-16T04:59:53;16.70;73.80
38325;DHT22;24126;52.672;13.622;2023-05-16T05:02:20;16.70;73.80
38325;DHT22;24126;52.672;13.622;2023-05-16T05:04:48;16.70;73.80
38325;DHT22;24126;52.672;13.622;2023-05-16T05:07:16;16.70;73.80
38325;DHT22;24126;52.672;13.622;2023-05-16T05:09:43;16.70;73.70
38325;DHT22;24126;52.672;13.622;2023-05-16T05:12:10;16.70;73.70
38325;DHT22;24126;52.672;13.622;2023-05-16T05:14:37;16.70;73.70
38325;DHT22;24126;52.672;13.622;2023-05-16T05:17:04;16.70;73.80
38325;DHT22;24126;52.672;13.622;2023-05-16T05:19:31;16.60;73.60
38325;DHT22;24126;52.672;13.622;2023-05-16T05:21:58;16.70;73.60
38325;DHT22;24126;52.672;13.622;2023-05-16T05:24:25;16.60;73.60
38325;DHT22;24126;52.672;13.622;2023-05-16T05:26:52;16.60;73.60
38325;DHT22;24126;52.672;13.622;2023-05-16T05:29:19;16.60;73.60
38325;DHT22;24126;52.672;13.622;2023-05-16T05:31:47;16.60;73.30
38325;DHT22;24126;52.672;13.622;2023-05-16T05:34:14;16.60;73.40
38325;DHT22;24126;52.672;13.622;2023-05-16T05:36:41;16.60;73.40
38325;DHT22;24126;52.672;13.622;2023-05-16T05:39:09;16.60;73.40
38325;DHT22;24126;52.672;13.622;2023-05-16T05:41:36;16.50;73.10
38325;DHT22;24126;52.672;13.622;2023-05-16T05:44:03;16.50;73.10
38325;DHT22;24126;52.672;13.622;2023-05-16T05:46:30;16.50;73.10
38325;DHT22;24126;52.672;13.622;2023-05-16T05:48:58;16.40;73.10
38325;DHT22;24126;52.672;13.622;2023-05-16T05:51:25;16.40;73.20
38325;DHT22;24126;52.672;13.622;2023-05-16T05:53:53;16.40;73.30
38325;DHT22;24126;52.672;13.622;2023-05-16T05:56:20;16.30;73.30
38325;DHT22;24126;52.672;13.622;2023-05-16T05:58:49;16.30;73.30
38325;DHT22;24126;52.672;13.622;2023-05-16T06:01:16;16.30;73.40
38325;DHT22;24126;52.672;13.622;2023-05-16T06:03:46;16.30;73.60
38325;DHT22;24126;52.672;13.622;2023-05-16T06:06:13;16.30;73.70
38325;DHT22;24126;52.672;13.622;2023-05-16T06:08:41;16.40;73.40
38325;DHT22;24126;52.672;13.622;2023-05-16T06:11:08;16.40;73.40
38325;DHT22;24126;52.672;13.622;2023-05-16T06:13:35;16.40;73.10
38325;DHT22;24126;52.672;13.622;2023-05-16T06:16:02;16.40;73.10
38325;DHT22;24126;52.672;13.622;2023-05-16T06:18:29;16.40;73.00
38325;DHT22;24126;52.672;13.622;2023-05-16T06:20:56;16.40;72.90
38325;DHT22;24126;52.672;13.622;2023-05-16T06:23:23;16.40;73.00
38325;DHT22;24126;52.672;13.622;2023-05-16T06:25:50;16.50;73.10
38325;DHT22;24126;52.672;13.622;2023-05-16T06:28:17;16.50;72.90
38325;DHT22;24126;52.672;13.622;2023-05-16T06:30:44;16.50;72.80
38325;DHT22;24126;52.672;13.622;2023-05-16T06:33:13;16.50;72.80
38325;DHT22;24126;52.672;13.622;2023-05-16T06:35:40;16.50;72.50
38325;DHT22;24126;52.672;13.622;2023-05-16T06:38:07;16.50;72.60
38325;DHT22;24126;52.672;13.622;2023-05-16T06:40:34;16.50;72.30
38325;DHT22;24126;52.672;13.622;2023-05-16T06:43:02;16.60;72.10
38325;DHT22;24126;52.672;13.622;2023-05-16T06:45:29;16.50;72.10
38325;DHT22;24126;52.672;13.622;2023-05-16T06:47:56;16.50;72.00
38325;DHT22;24126;52.672;13.622;2023-05-16T06:50:23;16.50;72.00
38325;DHT22;24126;52.672;13.622;2023-05-16T06:52:50;16.50;72.10
38325;DHT22;24126;52.672;13.622;2023-05-16T06:55:17;16.60;72.40
38325;DHT22;24126;52.672;13.622;2023-05-16T06:57:44;16.60;72.50
38325;DHT22;24126;52.672;13.622;2023-05-16T07:00:11;16.70;72.40
38325;DHT22;24126;52.672;13.622;2023-05-16T07:02:38;16.80;72.20
38325;DHT22;24126;52.672;13.622;2023-05-16T07:05:06;16.90;72.00
38325;DHT22;24126;52.672;13.622;2023-05-16T07:07:33;16.90;71.70
38325;DHT22;24126;52.672;13.622;2023-05-16T07:10:00;16.90;71.60
38325;DHT22;24126;52.672;13.622;2023-05-16T07:12:27;16.90;71.40
38325;DHT22;24126;52.672;13.622;2023-05-16T07:14:54;16.90;71.20
38325;DHT22;24126;52.672;13.622;2023-05-16T07:17:21;16.90;71.30
38325;DHT22;24126;52.672;13.622;2023-05-16T07:19:48;17.00;71.30
38325;DHT22;24126;52.672;13.622;2023-05-16T07:22:15;17.00;71.10
38325;DHT22;24126;52.672;13.622;2023-05-16T07:24:42;17.00;71.10
38325;DHT22;24126;52.672;13.622;2023-05-16T07:27:09;17.00;71.10
38325;DHT22;24126;52.672;13.622;2023-05-16T07:29:37;16.90;71.10
38325;DHT22;24126;52.672;13.622;2023-05-16T07:32:04;16.90;71.00
38325;DHT22;24126;52.672;13.622;2023-05-16T07:34:31;16.90;71.10
38325;DHT22;24126;52.672;13.622;2023-05-16T07:36:58;16.90;71.10
38325;DHT22;24126;52.672;13.622;2023-05-16T07:39:25;17.00;71.00
38325;DHT22;24126;52.672;13.622;2023-05-16T07:41:52;17.00;71.00
38325;DHT22;24126;52.672;13.622;2023-05-16T07:44:19;17.00;70.80
38325;DHT22;24126;52.672;13.622;2023-05-16T07:46:46;17.00;70.60
38325;DHT22;24126;52.672;13.622;2023-05-16T07:49:13;17.00;70.50
38325;DHT22;24126;52.672;13.622;2023-05-16T07:51:40;17.00;70.60
38325;DHT22;24126;52.672;13.622;2023-05-16T07:54:07;17.00;70.60
38325;DHT22;24126;52.672;13.622;2023-05-16T07:56:34;17.10;70.60
38325;DHT22;24126;52.672;13.622;2023-05-16T07:59:01;17.10;70.30
38325;DHT22;24126;52.672;13.622;2023-05-16T08:01:30;17.10;70.20
38325;DHT22;24126;52.672;13.622;2023-05-16T08:03:57;17.10;70.20
38325;DHT22;24126;52.672;13.622;2023-05-16T08:06:24;17.20;70.10
38325;DHT22;24126;52.672;13.622;2023-05-16T08:08:51;17.20;69.60
38325;DHT22;24126;52.672;13.622;2023-05-16T08:11:18;17.30;69.50
38325;DHT22;24126;52.672;13.622;2023-05-16T08:13:47;17.30;69.50
38325;DHT22;24126;52.672;13.622;2023-05-16T08:16:14;17.30;69.40
38325;DHT22;24126;52.672;13.622;2023-05-16T08:18:41;17.40;69.30
38325;DHT22;24126;52.672;13.622;2023-05-16T08:21:08;17.40;69.30
38325;DHT22;24126;52.672;13.622;2023-05-16T08:23:35;17.40;69.00
38325;DHT22;24126;52.672;13.622;2023-05-16T08:26:02;17.50;68.90
38325;DHT22;24126;52.672;13.622;2023-05-16T08:28:29;17.50;68.80
38325;DHT22;24126;52.672;13.622;2023-05-16T08:30:56;17.50;69.30
38325;DHT22;24126;52.672;13.622;2023-05-16T08:33:24;17.50;68.60
38325;DHT22;24126;52.672;13.622;2023-05-16T08:35:51;17.50;68.50
38325;DHT22;24126;52.672;13.622;2023-05-16T08:38:18;17.60;68.20
38325;DHT22;24126;52.672;13.622;2023-05-16T08:40:45;17.60;67.90
38325;DHT22;24126;52.672;13.622;2023-05-16T08:43:12;17.60;67.60
38325;DHT22;24126;52.672;13.622;2023-05-16T08:45:40;17.60;67.50
38325;DHT22;24126;52.672;13.622;2023-05-16T08:48:07;17.50;66.90
38325;DHT22;24126;52.672;13.622;2023-05-16T08:50:35;17.60;67.30
38325;DHT22;24126;52.672;13.622;2023-05-16T08:53:04;17.50;67.10
38325;DHT22;24126;52.672;13.622;2023-05-16T08:55:32;17.50;66.80
38325;DHT22;24126;52.672;13.622;2023-05-16T08:58:00;17.50;66.80
38325;DHT22;24126;52.672;13.622;2023-05-16T09:00:28;17.50;66.60
38325;DHT22;24126;52.672;13.622;2023-05-16T09:02:56;17.50;66.40
38325;DHT22;24126;52.672;13.622;2023-05-16T09:05:23;17.60;66.30
38325;DHT22;24126;52.672;13.622;2023-05-16T09:07:51;17.50;66.00
38325;DHT22;24126;52.672;13.622;2023-05-16T09:10:18;17.60;66.00
38325;DHT22;24126;52.672;13.622;2023-05-16T09:12:45;17.60;65.80
38325;DHT22;24126;52.672;13.622;2023-05-16T09:15:12;17.60;66.00
38325;DHT22;24126;52.672;13.622;2023-05-16T09:17:41;17.60;65.80
38325;DHT22;24126;52.672;13.622;2023-05-16T09:20:17;17.60;65.50
38325;DHT22;24126;52.672;13.622;2023-05-16T09:25:18;17.60;65.30
38325;DHT22;24126;52.672;13.622;2023-05-16T09:27:46;17.70;65.50
38325;DHT22;24126;52.672;13.622;2023-05-16T09:30:13;17.70;65.40
38325;DHT22;24126;52.672;13.622;2023-05-16T09:32:44;17.70;65.20
38325;DHT22;24126;52.672;13.622;2023-05-16T09:35:15;17.70;64.90
38325;DHT22;24126;52.672;13.622;2023-05-16T09:37:45;17.80;65.20
38325;DHT22;24126;52.672;13.622;2023-05-16T09:40:13;17.80;64.70
38325;DHT22;24126;52.672;13.622;2023-05-16T09:42:43;17.80;64.70
38325;DHT22;24126;52.672;13.622;2023-05-16T09:45:11;17.80;65.00
38325;DHT22;24126;52.672;13.622;2023-05-16T09:47:38;17.90;64.60
38325;DHT22;24126;52.672;13.622;2023-05-16T09:50:14;18.00;64.30
38325;DHT22;24126;52.672;13.622;2023-05-16T09:52:42;18.00;64.50
38325;DHT22;24126;52.672;13.622;2023-05-16T09:55:09;18.10;64.00
38325;DHT22;24126;52.672;13.622;2023-05-16T09:57:37;18.20;63.70
38325;DHT22;24126;52.672;13.622;2023-05-16T10:00:06;18.20;63.20
38325;DHT22;24126;52.672;13.622;2023-05-16T10:02:35;18.20;63.20
38325;DHT22;24126;52.672;13.622;2023-05-16T10:05:03;18.20;63.00
38325;DHT22;24126;52.672;13.622;2023-05-16T10:07:31;18.20;63.30
38325;DHT22;24126;52.672;13.622;2023-05-16T10:10:06;18.20;63.20
38325;DHT22;24126;52.672;13.622;2023-05-16T10:12:33;18.20;63.10
38325;DHT22;24126;52.672;13.622;2023-05-16T10:15:01;18.20;62.70
38325;DHT22;24126;52.672;13.622;2023-05-16T10:17:30;18.20;62.80
38325;DHT22;24126;52.672;13.622;2023-05-16T10:20:04;18.30;62.60
38325;DHT22;24126;52.672;13.622;2023-05-16T10:22:35;18.30;62.70
38325;DHT22;24126;52.672;13.622;2023-05-16T10:25:16;18.20;62.80
38325;DHT22;24126;52.672;13.622;2023-05-16T10:27:43;18.30;63.10
38325;DHT22;24126;52.672;13.622;2023-05-16T10:30:12;18.30;63.00
38325;DHT22;24126;52.672;13.622;2023-05-16T10:32:39;18.30;62.80
38325;DHT22;24126;52.672;13.622;2023-05-16T10:35:07;18.40;62.50
38325;DHT22;24126;52.672;13.622;2023-05-16T10:37:34;18.50;62.30
38325;DHT22;24126;52.672;13.622;2023-05-16T10:40:02;18.50;62.10
38325;DHT22;24126;52.672;13.622;2023-05-16T10:42:31;18.50;62.10
38325;DHT22;24126;52.672;13.622;2023-05-16T10:45:15;18.60;61.40
38325;DHT22;24126;52.672;13.622;2023-05-16T10:50:38;18.60;61.50
38325;DHT22;24126;52.672;13.622;2023-05-16T10:53:17;18.60;61.50
38325;DHT22;24126;52.672;13.622;2023-05-16T11:01:13;18.60;61.20
38325;DHT22;24126;52.672;13.622;2023-05-16T11:03:58;18.60;60.90
38325;DHT22;24126;52.672;13.622;2023-05-16T11:06:27;18.60;61.50
38325;DHT22;24126;52.672;13.622;2023-05-16T11:09:03;18.60;61.50
38325;DHT22;24126;52.672;13.622;2023-05-16T11:14:27;18.70;61.90
38325;DHT22;24126;52.672;13.622;2023-05-16T11:19:31;18.70;61.40
38325;DHT22;24126;52.672;13.622;2023-05-16T11:22:08;18.80;61.50
38325;DHT22;24126;52.672;13.622;2023-05-16T11:24:36;18.80;61.20
38325;DHT22;24126;52.672;13.622;2023-05-16T11:27:04;18.80;61.00
38325;DHT22;24126;52.672;13.622;2023-05-16T11:29:32;18.90;61.10
38325;DHT22;24126;52.672;13.622;2023-05-16T11:32:00;18.90;60.60
38325;DHT22;24126;52.672;13.622;2023-05-16T11:34:28;19.00;60.80
38325;DHT22;24126;52.672;13.622;2023-05-16T11:36:56;19.00;60.60
38325;DHT22;24126;52.672;13.622;2023-05-16T11:39:23;19.10;60.00
38325;DHT22;24126;52.672;13.622;2023-05-16T11:41:50;19.20;60.20
38325;DHT22;24126;52.672;13.622;2023-05-16T11:44:17;19.20;59.90
38325;DHT22;24126;52.672;13.622;2023-05-16T11:46:44;19.20;60.30
38325;DHT22;24126;52.672;13.622;2023-05-16T11:49:16;19.20;59.90
38325;DHT22;24126;52.672;13.622;2023-05-16T11:51:43;19.10;60.20
38325;DHT22;24126;52.672;13.622;2023-05-16T11:54:11;19.10;59.90
38325;DHT22;24126;52.672;13.622;2023-05-16T11:56:38;19.00;59.70
38325;DHT22;24126;52.672;13.622;2023-05-16T11:59:06;18.90;59.80
38325;DHT22;24126;52.672;13.622;2023-05-16T12:01:33;18.90;59.90
38325;DHT22;24126;52.672;13.622;2023-05-16T12:04:06;18.90;59.70
38325;DHT22;24126;52.672;13.622;2023-05-16T12:06:33;18.90;59.90
38325;DHT22;24126;52.672;13.622;2023-05-16T12:09:00;18.90;59.90
38325;DHT22;24126;52.672;13.622;2023-05-16T12:11:28;18.90;59.60
38325;DHT22;24126;52.672;13.622;2023-05-16T12:13:55;19.00;59.60
38325;DHT22;24126;52.672;13.622;2023-05-16T12:16:22;19.10;59.40
38325;DHT22;24126;52.672;13.622;2023-05-16T12:18:50;19.20;58.90
38325;DHT22;24126;52.672;13.622;2023-05-16T12:21:17;19.30;58.50
38325;DHT22;24126;52.672;13.622;2023-05-16T12:23:45;19.50;58.50
38325;DHT22;24126;52.672;13.622;2023-05-16T12:26:12;19.60;57.80
38325;DHT22;24126;52.672;13.622;2023-05-16T12:28:39;19.70;57.70
38325;DHT22;24126;52.672;13.622;2023-05-16T12:31:18;19.70;57.20
38325;DHT22;24126;52.672;13.622;2023-05-16T12:33:45;20.00;57.50
38325;DHT22;24126;52.672;13.622;2023-05-16T12:36:12;20.20;57.40
38325;DHT22;24126;52.672;13.622;2023-05-16T12:38:41;20.50;56.40
38325;DHT22;24126;52.672;13.622;2023-05-16T12:41:18;20.70;55.60
38325;DHT22;24126;52.672;13.622;2023-05-16T12:43:46;20.80;55.90
38325;DHT22;24126;52.672;13.622;2023-05-16T12:46:14;21.10;56.00
38325;DHT22;24126;52.672;13.622;2023-05-16T12:48:41;21.40;54.50
38325;DHT22;24126;52.672;13.622;2023-05-16T12:51:12;21.60;54.60
38325;DHT22;24126;52.672;13.622;2023-05-16T12:53:44;21.90;54.70
38325;DHT22;24126;52.672;13.622;2023-05-16T12:56:12;22.10;52.80
38325;DHT22;24126;52.672;13.622;2023-05-16T12:58:41;22.20;52.30
38325;DHT22;24126;52.672;13.622;2023-05-16T13:01:09;22.10;51.60
38325;DHT22;24126;52.672;13.622;2023-05-16T13:03:36;22.00;51.30
38325;DHT22;24126;52.672;13.622;2023-05-16T13:06:03;21.90;51.90
38325;DHT22;24126;52.672;13.622;2023-05-16T13:08:31;21.80;51.40
38325;DHT22;24126;52.672;13.622;2023-05-16T13:10:58;21.70;51.60
38325;DHT22;24126;52.672;13.622;2023-05-16T13:13:25;21.70;52.20
38325;DHT22;24126;52.672;13.622;2023-05-16T13:15:52;21.70;51.30
38325;DHT22;24126;52.672;13.622;2023-05-16T13:18:20;21.70;50.50
38325;DHT22;24126;52.672;13.622;2023-05-16T13:20:47;21.70;50.40
38325;DHT22;24126;52.672;13.622;2023-05-16T13:23:14;21.70;50.70
38325;DHT22;24126;52.672;13.622;2023-05-16T13:25:41;21.70;50.20
38325;DHT22;24126;52.672;13.622;2023-05-16T13:28:08;21.60;49.60
38325;DHT22;24126;52.672;13.622;2023-05-16T13:30:35;21.60;50.00
38325;DHT22;24126;52.672;13.622;2023-05-16T13:33:03;21.60;50.20
38325;DHT22;24126;52.672;13.622;2023-05-16T13:35:30;21.60;50.00
38325;DHT22;24126;52.672;13.622;2023-05-16T13:37:57;21.70;49.90
38325;DHT22;24126;52.672;13.622;2023-05-16T13:40:24;21.80;49.80
38325;DHT22;24126;52.672;13.622;2023-05-16T13:42:51;21.80;49.70
38325;DHT22;24126;52.672;13.622;2023-05-16T13:45:18;21.90;49.10
38325;DHT22;24126;52.672;13.622;2023-05-16T13:47:45;21.90;48.70
38325;DHT22;24126;52.672;13.622;2023-05-16T13:50:12;21.90;48.70
38325;DHT22;24126;52.672;13.622;2023-05-16T13:52:39;21.90;48.70
38325;DHT22;24126;52.672;13.622;2023-05-16T13:55:07;22.00;48.40
38325;DHT22;24126;52.672;13.622;2023-05-16T13:57:34;22.00;48.00
38325;DHT22;24126;52.672;13.622;2023-05-16T14:00:02;21.90;47.50
38325;DHT22;24126;52.672;13.622;2023-05-16T14:02:38;21.90;47.70
38325;DHT22;24126;52.672;13.622;2023-05-16T14:05:05;21.80;47.80
38325;DHT22;24126;52.672;13.622;2023-05-16T14:07:33;21.80;47.10
38325;DHT22;24126;52.672;13.622;2023-05-16T14:10:00;21.70;47.00
38325;DHT22;24126;52.672;13.622;2023-05-16T14:12:28;21.70;47.10
38325;DHT22;24126;52.672;13.622;2023-05-16T14:14:55;21.70;46.90
38325;DHT22;24126;52.672;13.622;2023-05-16T14:17:24;21.60;47.00
38325;DHT22;24126;52.672;13.622;2023-05-16T14:19:51;21.60;46.50
38325;DHT22;24126;52.672;13.622;2023-05-16T14:22:19;21.70;45.80
38325;DHT22;24126;52.672;13.622;2023-05-16T14:24:46;21.60;46.20
38325;DHT22;24126;52.672;13.622;2023-05-16T14:27:13;21.60;46.40
38325;DHT22;24126;52.672;13.622;2023-05-16T14:29:41;21.60;45.90
38325;DHT22;24126;52.672;13.622;2023-05-16T14:32:09;21.60;46.20
38325;DHT22;24126;52.672;13.622;2023-05-16T14:34:36;21.50;46.30
38325;DHT22;24126;52.672;13.622;2023-05-16T14:37:03;21.50;46.90
38325;DHT22;24126;52.672;13.622;2023-05-16T14:39:30;21.50;47.00
38325;DHT22;24126;52.672;13.622;2023-05-16T14:41:57;21.60;47.00
38325;DHT22;24126;52.672;13.622;2023-05-16T14:44:25;21.60;46.50
38325;DHT22;24126;52.672;13.622;2023-05-16T14:46:52;21.70;46.00
38325;DHT22;24126;52.672;13.622;2023-05-16T14:49:19;21.70;46.00
38325;DHT22;24126;52.672;13.622;2023-05-16T14:51:46;21.70;45.10
38325;DHT22;24126;52.672;13.622;2023-05-16T14:54:15;21.60;44.30
38325;DHT22;24126;52.672;13.622;2023-05-16T14:56:43;21.60;44.10
38325;DHT22;24126;52.672;13.622;2023-05-16T14:59:10;21.50;44.40
38325;DHT22;24126;52.672;13.622;2023-05-16T15:01:37;21.50;44.00
38325;DHT22;24126;52.672;13.622;2023-05-16T15:04:04;21.60;44.40
38325;DHT22;24126;52.672;13.622;2023-05-16T15:06:31;21.60;44.00
38325;DHT22;24126;52.672;13.622;2023-05-16T15:09:00;21.60;43.80
38325;DHT22;24126;52.672;13.622;2023-05-16T15:11:27;21.70;43.90
38325;DHT22;24126;52.672;13.622;2023-05-16T15:13:55;21.70;43.90
38325;DHT22;24126;52.672;13.622;2023-05-16T15:16:22;21.70;43.50
38325;DHT22;24126;52.672;13.622;2023-05-16T15:18:49;21.70;44.40
38325;DHT22;24126;52.672;13.622;2023-05-16T15:21:16;21.70;43.70
38325;DHT22;24126;52.672;13.622;2023-05-16T15:23:44;21.70;43.70
38325;DHT22;24126;52.672;13.622;2023-05-16T15:26:12;21.70;43.30
38325;DHT22;24126;52.672;13.622;2023-05-16T15:28:39;21.70;42.70
38325;DHT22;24126;52.672;13.622;2023-05-16T15:31:06;21.70;42.60
38325;DHT22;24126;52.672;13.622;2023-05-16T15:33:34;21.70;43.20
38325;DHT22;24126;52.672;13.622;2023-05-16T15:36:01;21.70;42.20
38325;DHT22;24126;52.672;13.622;2023-05-16T15:38:29;21.60;42.20
38325;DHT22;24126;52.672;13.622;2023-05-16T15:40:56;21.60;41.80
38325;DHT22;24126;52.672;13.622;2023-05-16T15:43:23;21.50;41.00
38325;DHT22;24126;52.672;13.622;2023-05-16T15:45:50;21.40;40.70
38325;DHT22;24126;52.672;13.622;2023-05-16T15:48:18;21.40;40.50